Darstellungsparameter: Aktuell verwendete Einstellungen:
Skalierung der Graphiken ... ?
xyx+y,   Skalierungsfaktor:      Skalierung: Modus: x, Faktor: 1
Darstellungszeitraum ... ?
Vom - - bis: - -   Zeitraum: 06.08.2021 - 06.08.2021
Min/Max/Avg-Anzeige ... ?
Zeige MMA aktuell
Zeige MMA Monat
Zeige MMA alles
Zeige --A aktuell
Zeige --A Monat
Zeige --A alles
Keine MMA-Anzeige
MMA:
Average (ber die Originaldaten)
MMA-Basis: 06.08.2021 - 06.08.2021
Quicknavigation für Darstellung... ?
Tage:      1T, 2T, 3T, 5T -1T -2T -3T -5T +1T +2T +3T +5T
Wochen: 1W, 2W, 3W -1W -2W -3W +1W +2W +3W
Monate: 1M, 3M, 6M -1M -3M -6M +1M +3M +6M
Jahre:    1J, 3J, 5J, 10J -1J -3J -5J -10J +1J +3J +5J +10J
Nutze für die Darstellung ... ?
Originaldaten oder Mittelwerte auf ...
Stundenbasis Tagesbasis Wochenbasis
Monatsbasis Jahresbasis      Datenbasis: Original-Daten
Darstellen als:
Statistik (Auto) Statistik J:M      Darstellung:
Zur Graphik,    zurück zur Übersicht aller Sensoren.
 
Tabellarische Datenbersicht: ?
 
Sensor: Nr:Datum:Temp:Abs-Feuchte:Windchill:Wind:
Aussen-T/F 1 06-08-2021 00:00:00 15.4 C 12.48 g/m*3 15.4 C 0 km/h
2 06-08-2021 00:05:00 15.4 C 12.48 g/m*3 15.4 C 0 km/h
3 06-08-2021 00:10:00 15.5 C 12.56 g/m*3 15.5 C 0 km/h
4 06-08-2021 00:15:00 15.5 C 12.56 g/m*3 15.5 C 0 km/h
5 06-08-2021 00:20:00 15.4 C 12.48 g/m*3 15.4 C 0 km/h
6 06-08-2021 00:25:00 15.4 C 12.48 g/m*3 15.4 C 0 km/h
7 06-08-2021 00:30:00 15.3 C 12.41 g/m*3 15.3 C 0 km/h
8 06-08-2021 00:35:00 15.3 C 12.41 g/m*3 15.3 C 0 km/h
9 06-08-2021 00:40:00 15.3 C 12.41 g/m*3 15.3 C 0 km/h
10 06-08-2021 00:45:00 15.2 C 12.33 g/m*3 15.2 C 0 km/h
11 06-08-2021 00:50:00 15.2 C 12.33 g/m*3 15.2 C 0 km/h
12 06-08-2021 00:55:00 15.1 C 12.26 g/m*3 15.1 C 0 km/h
13 06-08-2021 01:00:00 15.1 C 12.26 g/m*3 15.1 C 0 km/h
14 06-08-2021 01:05:00 15 C 12.18 g/m*3 15 C 0 km/h
15 06-08-2021 01:10:00 14.9 C 12.11 g/m*3 14.9 C 0 km/h
16 06-08-2021 01:15:00 14.9 C 12.11 g/m*3 14.9 C 0 km/h
17 06-08-2021 01:20:00 14.9 C 12.11 g/m*3 14.9 C 0 km/h
18 06-08-2021 01:25:00 14.8 C 12.03 g/m*3 14.8 C 0 km/h
19 06-08-2021 01:30:00 14.8 C 12.03 g/m*3 14.8 C 0 km/h
20 06-08-2021 01:35:00 14.8 C 12.03 g/m*3 14.8 C 0 km/h
21 06-08-2021 01:40:00 14.8 C 12.03 g/m*3 14.8 C 0 km/h
22 06-08-2021 01:45:00 14.8 C 12.16 g/m*3 14.8 C 0 km/h
23 06-08-2021 01:50:00 14.8 C 12.16 g/m*3 14.8 C 0 km/h
24 06-08-2021 01:55:00 14.9 C 12.24 g/m*3 14.9 C 0 km/h
25 06-08-2021 02:00:00 14.9 C 12.24 g/m*3 14.9 C 0 km/h
Sensor: Nr:Datum:Temp:Abs-Feuchte:Windchill:Wind:
Aussen-T/F 26 06-08-2021 02:05:00 14.9 C 12.24 g/m*3 14.9 C 0 km/h
27 06-08-2021 02:10:00 14.9 C 12.24 g/m*3 14.9 C 0 km/h
28 06-08-2021 02:15:00 14.9 C 12.24 g/m*3 14.9 C 0 km/h
29 06-08-2021 02:20:00 15 C 12.31 g/m*3 15 C 0 km/h
30 06-08-2021 02:25:00 14.9 C 12.24 g/m*3 14.9 C 0 km/h
31 06-08-2021 02:30:00 14.9 C 12.24 g/m*3 14.9 C 0 km/h
32 06-08-2021 02:35:00 14.8 C 12.16 g/m*3 14.8 C 0 km/h
33 06-08-2021 02:40:00 14.7 C 12.09 g/m*3 14.7 C 0 km/h
34 06-08-2021 02:45:00 14.7 C 12.09 g/m*3 14.7 C 0 km/h
35 06-08-2021 02:50:00 14.7 C 12.09 g/m*3 14.7 C 0 km/h
36 06-08-2021 02:55:00 14.7 C 12.09 g/m*3 14.7 C 0 km/h
37 06-08-2021 03:00:00 14.7 C 12.09 g/m*3 14.7 C 0 km/h
38 06-08-2021 03:05:00 14.7 C 12.09 g/m*3 14.7 C 0 km/h
39 06-08-2021 03:10:00 14.7 C 12.09 g/m*3 14.7 C 0 km/h
40 06-08-2021 03:15:00 14.6 C 12.01 g/m*3 14.6 C 0 km/h
41 06-08-2021 03:20:00 14.6 C 12.01 g/m*3 14.6 C 0 km/h
42 06-08-2021 03:25:00 14.4 C 11.87 g/m*3 14.4 C 0 km/h
43 06-08-2021 03:30:00 14.4 C 11.87 g/m*3 14.4 C 0 km/h
44 06-08-2021 03:35:00 14.3 C 11.79 g/m*3 14.3 C 0 km/h
45 06-08-2021 03:40:00 14.3 C 11.79 g/m*3 14.3 C 0 km/h
46 06-08-2021 03:45:00 14.3 C 11.79 g/m*3 14.3 C 0 km/h
47 06-08-2021 03:50:00 14.3 C 11.79 g/m*3 14.3 C 0 km/h
48 06-08-2021 03:55:00 14.4 C 11.87 g/m*3 14.4 C 0 km/h
49 06-08-2021 04:00:00 14.4 C 11.87 g/m*3 14.4 C 0 km/h
50 06-08-2021 04:05:00 14.5 C 11.94 g/m*3 14.5 C 0 km/h
Sensor: Nr:Datum:Temp:Abs-Feuchte:Windchill:Wind:
Aussen-T/F 51 06-08-2021 04:10:00 14.6 C 12.01 g/m*3 14.6 C 0 km/h
52 06-08-2021 04:15:00 14.6 C 12.01 g/m*3 14.6 C 0 km/h
53 06-08-2021 04:20:00 14.7 C 12.09 g/m*3 14.7 C 0 km/h
54 06-08-2021 04:25:00 14.7 C 12.09 g/m*3 14.7 C 0 km/h
55 06-08-2021 04:30:00 14.8 C 12.16 g/m*3 14.8 C 0 km/h
56 06-08-2021 04:35:00 14.8 C 12.16 g/m*3 14.8 C 0 km/h
57 06-08-2021 04:40:00 14.8 C 12.29 g/m*3 14.8 C 0 km/h
58 06-08-2021 04:45:00 14.8 C 12.29 g/m*3 14.8 C 0 km/h
59 06-08-2021 04:50:00 14.9 C 12.36 g/m*3 14.9 C 0 km/h
60 06-08-2021 04:55:00 14.9 C 12.36 g/m*3 14.9 C 0 km/h
61 06-08-2021 05:00:00 15 C 12.44 g/m*3 15 C 0 km/h
62 06-08-2021 05:05:00 15.1 C 12.51 g/m*3 15.1 C 0 km/h
63 06-08-2021 05:10:00 15.1 C 12.51 g/m*3 15.1 C 0 km/h
64 06-08-2021 05:15:00 15.2 C 12.59 g/m*3 15.2 C 0 km/h
65 06-08-2021 05:20:00 15.2 C 12.59 g/m*3 15.2 C 0 km/h
66 06-08-2021 05:25:00 15.2 C 12.59 g/m*3 15.2 C 0 km/h
67 06-08-2021 05:30:00 15.3 C 12.67 g/m*3 15.3 C 0 km/h
68 06-08-2021 05:35:00 15.3 C 12.67 g/m*3 15.3 C 0 km/h
69 06-08-2021 05:40:00 15.3 C 12.67 g/m*3 15.3 C 0 km/h
70 06-08-2021 05:45:00 15.4 C 12.74 g/m*3 15.4 C 0 km/h
71 06-08-2021 05:50:00 15.4 C 12.74 g/m*3 15.4 C 0 km/h
72 06-08-2021 05:55:00 15.4 C 12.74 g/m*3 15.4 C 0 km/h
73 06-08-2021 06:00:00 15.4 C 12.74 g/m*3 15.4 C 0 km/h
74 06-08-2021 06:05:00 15.5 C 12.82 g/m*3 15.5 C 0 km/h
75 06-08-2021 06:10:00 15.5 C 12.82 g/m*3 15.5 C 0 km/h
Sensor: Nr:Datum:Temp:Abs-Feuchte:Windchill:Wind:
Aussen-T/F 76 06-08-2021 06:15:00 15.6 C 12.9 g/m*3 15.6 C 0 km/h
77 06-08-2021 06:20:00 15.6 C 12.9 g/m*3 15.6 C 0 km/h
78 06-08-2021 06:25:00 15.6 C 12.9 g/m*3 15.6 C 0 km/h
79 06-08-2021 06:30:00 15.7 C 12.98 g/m*3 15.7 C 0 km/h
80 06-08-2021 06:35:00 15.7 C 12.98 g/m*3 15.7 C 0 km/h
81 06-08-2021 06:40:00 15.7 C 12.98 g/m*3 15.7 C 0 km/h
82 06-08-2021 06:45:00 15.7 C 12.98 g/m*3 15.7 C 0 km/h
83 06-08-2021 06:50:00 15.7 C 12.98 g/m*3 15.7 C 0 km/h
84 06-08-2021 06:55:00 15.7 C 12.98 g/m*3 15.7 C 0 km/h
85 06-08-2021 07:00:00 15.7 C 12.98 g/m*3 15.7 C 0 km/h
86 06-08-2021 07:05:00 15.7 C 12.98 g/m*3 15.7 C 0 km/h
87 06-08-2021 07:10:00 15.8 C 13.06 g/m*3 15.8 C 0 km/h
88 06-08-2021 07:15:00 15.8 C 13.06 g/m*3 15.8 C 0 km/h
89 06-08-2021 07:20:00 15.9 C 13.14 g/m*3 15.9 C 0 km/h
90 06-08-2021 07:25:00 15.9 C 13.14 g/m*3 15.9 C 0 km/h
91 06-08-2021 07:30:00 15.9 C 13.14 g/m*3 15.9 C 0 km/h
92 06-08-2021 07:35:00 16 C 13.22 g/m*3 16 C 0 km/h
93 06-08-2021 07:40:00 16.1 C 13.3 g/m*3 16.1 C 0 km/h
94 06-08-2021 07:45:00 16.1 C 13.3 g/m*3 16.1 C 0 km/h
95 06-08-2021 07:50:00 16.3 C 13.46 g/m*3 16.3 C 0 km/h
96 06-08-2021 07:55:00 16.4 C 13.54 g/m*3 16.4 C 0 km/h
97 06-08-2021 08:00:00 16.4 C 13.54 g/m*3 16.4 C 0 km/h
98 06-08-2021 08:05:00 16.4 C 13.54 g/m*3 16.4 C 0 km/h
99 06-08-2021 08:10:00 16.5 C 13.62 g/m*3 16.5 C 0 km/h
100 06-08-2021 08:15:00 16.6 C 13.7 g/m*3 16.6 C 0 km/h
Sensor: Nr:Datum:Temp:Abs-Feuchte:Windchill:Wind:
Aussen-T/F 101 06-08-2021 08:20:00 16.7 C 13.79 g/m*3 16.7 C 0 km/h
102 06-08-2021 08:25:00 16.7 C 13.79 g/m*3 16.7 C 0 km/h
103 06-08-2021 08:30:00 16.8 C 13.87 g/m*3 16.8 C 0 km/h
104 06-08-2021 08:35:00 16.9 C 13.95 g/m*3 16.9 C 0 km/h
105 06-08-2021 08:40:00 16.9 C 13.95 g/m*3 16.9 C 0 km/h
106 06-08-2021 08:45:00 17 C 14.04 g/m*3 17 C 11.3 km/h
107 06-08-2021 08:50:00 17.2 C 14.2 g/m*3 17.2 C 0 km/h
108 06-08-2021 08:55:00 17.1 C 14.12 g/m*3 17.1 C 11.3 km/h
109 06-08-2021 09:00:00 17.2 C 14.2 g/m*3 17.2 C 6.4 km/h
110 06-08-2021 09:05:00 17.2 C 14.2 g/m*3 17.2 C 9.7 km/h
111 06-08-2021 09:10:00 17.2 C 14.06 g/m*3 17.2 C 0 km/h
112 06-08-2021 09:15:00 17.2 C 14.06 g/m*3 17.2 C 4.8 km/h
113 06-08-2021 09:20:00 17.2 C 14.06 g/m*3 17.2 C 3.2 km/h
114 06-08-2021 09:25:00 17.2 C 14.06 g/m*3 17.2 C 6.4 km/h
115 06-08-2021 09:30:00 17.3 C 14.14 g/m*3 17.3 C 3.2 km/h
116 06-08-2021 09:35:00 17.2 C 14.06 g/m*3 17.2 C 4.8 km/h
117 06-08-2021 09:40:00 17.3 C 14.14 g/m*3 17.3 C 1.6 km/h
118 06-08-2021 09:45:00 17.2 C 14.06 g/m*3 17.2 C 11.3 km/h
119 06-08-2021 09:50:00 17.3 C 14.14 g/m*3 17.3 C 4.8 km/h
120 06-08-2021 09:55:00 17.5 C 14.31 g/m*3 17.5 C 11.3 km/h
121 06-08-2021 10:00:00 17.6 C 14.25 g/m*3 17.6 C 9.7 km/h
122 06-08-2021 10:05:00 17.7 C 14.33 g/m*3 17.7 C 4.8 km/h
123 06-08-2021 10:10:00 17.7 C 14.18 g/m*3 17.7 C 4.8 km/h
124 06-08-2021 10:15:00 17.8 C 14.27 g/m*3 17.8 C 9.7 km/h
125 06-08-2021 10:20:00 17.8 C 14.12 g/m*3 17.8 C 6.4 km/h
Sensor: Nr:Datum:Temp:Abs-Feuchte:Windchill:Wind:
Aussen-T/F 126 06-08-2021 10:25:00 17.9 C 14.05 g/m*3 17.9 C 11.3 km/h
127 06-08-2021 10:30:00 18.1 C 14.06 g/m*3 18.1 C 11.3 km/h
128 06-08-2021 10:35:00 18.3 C 14.07 g/m*3 18.3 C 12.9 km/h
129 06-08-2021 10:40:00 18.5 C 14.08 g/m*3 18.5 C 12.9 km/h
130 06-08-2021 10:45:00 18.7 C 14.09 g/m*3 18.7 C 20.9 km/h
131 06-08-2021 10:50:00 18.8 C 14.17 g/m*3 18.8 C 12.9 km/h
132 06-08-2021 10:55:00 19 C 14.01 g/m*3 19 C 12.9 km/h
133 06-08-2021 11:00:00 19.1 C 14.1 g/m*3 19.1 C 14.5 km/h
134 06-08-2021 11:05:00 19.1 C 13.93 g/m*3 19.1 C 14.5 km/h
135 06-08-2021 11:10:00 19.1 C 13.93 g/m*3 19.1 C 11.3 km/h
136 06-08-2021 11:15:00 19.1 C 14.1 g/m*3 19.1 C 12.9 km/h
137 06-08-2021 11:20:00 19.2 C 14.18 g/m*3 19.2 C 14.5 km/h
138 06-08-2021 11:25:00 19.2 C 14.02 g/m*3 19.2 C 11.3 km/h
139 06-08-2021 11:30:00 19.2 C 13.85 g/m*3 19.2 C 17.7 km/h
140 06-08-2021 11:35:00 19.2 C 14.02 g/m*3 19.2 C 11.3 km/h
141 06-08-2021 11:40:00 19.2 C 14.02 g/m*3 19.2 C 11.3 km/h
142 06-08-2021 11:45:00 19.2 C 14.18 g/m*3 19.2 C 11.3 km/h
143 06-08-2021 11:50:00 19.1 C 13.77 g/m*3 19.1 C 16.1 km/h
144 06-08-2021 11:55:00 19.2 C 14.02 g/m*3 19.2 C 12.9 km/h
145 06-08-2021 12:00:00 19.3 C 13.93 g/m*3 19.3 C 16.1 km/h
146 06-08-2021 12:05:00 19.4 C 13.85 g/m*3 19.4 C 16.1 km/h
147 06-08-2021 12:10:00 19.4 C 13.85 g/m*3 19.4 C 14.5 km/h
148 06-08-2021 12:15:00 19.4 C 14.01 g/m*3 19.4 C 11.3 km/h
149 06-08-2021 12:20:00 19.5 C 13.93 g/m*3 19.5 C 16.1 km/h
150 06-08-2021 12:25:00 19.6 C 13.84 g/m*3 19.6 C 19.3 km/h
Sensor: Nr:Datum:Temp:Abs-Feuchte:Windchill:Wind:
Aussen-T/F 151 06-08-2021 12:30:00 19.8 C 13.84 g/m*3 19.8 C 19.3 km/h
152 06-08-2021 12:35:00 19.9 C 13.92 g/m*3 19.9 C 14.5 km/h
153 06-08-2021 12:40:00 20.1 C 14.08 g/m*3 20.1 C 11.3 km/h
154 06-08-2021 12:45:00 20.3 C 13.72 g/m*3 20.3 C 19.3 km/h
155 06-08-2021 12:50:00 20.6 C 13.96 g/m*3 20.6 C 14.5 km/h
156 06-08-2021 12:55:00 20.9 C 14.02 g/m*3 20.9 C 14.5 km/h
157 06-08-2021 13:00:00 21.2 C 13.71 g/m*3 21.2 C 17.7 km/h
158 06-08-2021 13:05:00 21.3 C 14.35 g/m*3 21.3 C 12.9 km/h
159 06-08-2021 13:10:00 21.2 C 13.9 g/m*3 21.2 C 16.1 km/h
160 06-08-2021 13:15:00 21.1 C 13.63 g/m*3 21.1 C 11.3 km/h
161 06-08-2021 13:20:00 21 C 13.92 g/m*3 21 C 14.5 km/h
162 06-08-2021 13:25:00 21.1 C 13.63 g/m*3 21.1 C 12.9 km/h
163 06-08-2021 13:30:00 21.3 C 13.61 g/m*3 21.3 C 27.4 km/h
164 06-08-2021 13:35:00 21.3 C 13.42 g/m*3 21.3 C 27.4 km/h
165 06-08-2021 13:40:00 21.2 C 13.34 g/m*3 21.2 C 17.7 km/h
166 06-08-2021 13:45:00 21.1 C 13.27 g/m*3 21.1 C 12.9 km/h
167 06-08-2021 13:50:00 20.9 C 12.75 g/m*3 20.9 C 20.9 km/h
168 06-08-2021 13:55:00 20.7 C 12.96 g/m*3 20.7 C 16.1 km/h
169 06-08-2021 14:00:00 20.6 C 12.89 g/m*3 20.6 C 16.1 km/h
170 06-08-2021 14:05:00 20.6 C 13.6 g/m*3 20.6 C 17.7 km/h
171 06-08-2021 14:10:00 20.6 C 13.42 g/m*3 20.6 C 12.9 km/h
172 06-08-2021 14:15:00 20.8 C 13.4 g/m*3 20.8 C 19.3 km/h
173 06-08-2021 14:20:00 20.9 C 13.3 g/m*3 20.9 C 16.1 km/h
174 06-08-2021 14:25:00 20.9 C 13.66 g/m*3 20.9 C 19.3 km/h
175 06-08-2021 14:30:00 20.9 C 13.3 g/m*3 20.9 C 19.3 km/h
Sensor: Nr:Datum:Temp:Abs-Feuchte:Windchill:Wind:
Aussen-T/F 176 06-08-2021 14:35:00 20.8 C 13.22 g/m*3 20.8 C 16.1 km/h
177 06-08-2021 14:40:00 20.7 C 13.14 g/m*3 20.7 C 12.9 km/h
178 06-08-2021 14:45:00 20.6 C 13.24 g/m*3 20.6 C 14.5 km/h
179 06-08-2021 14:50:00 20.8 C 13.4 g/m*3 20.8 C 14.5 km/h
180 06-08-2021 14:55:00 21.1 C 13.45 g/m*3 21.1 C 17.7 km/h
181 06-08-2021 15:00:00 21.3 C 13.42 g/m*3 21.3 C 16.1 km/h
182 06-08-2021 15:05:00 21.3 C 13.42 g/m*3 21.3 C 14.5 km/h
183 06-08-2021 15:10:00 21.4 C 13.69 g/m*3 21.4 C 12.9 km/h
184 06-08-2021 15:15:00 21.3 C 13.61 g/m*3 21.3 C 19.3 km/h
185 06-08-2021 15:20:00 21.2 C 13.34 g/m*3 21.2 C 20.9 km/h
186 06-08-2021 15:25:00 21.1 C 13.27 g/m*3 21.1 C 17.7 km/h
187 06-08-2021 15:30:00 20.9 C 13.48 g/m*3 20.9 C 22.5 km/h
188 06-08-2021 15:35:00 20.7 C 13.32 g/m*3 20.7 C 19.3 km/h
189 06-08-2021 15:40:00 20.9 C 13.66 g/m*3 20.9 C 14.5 km/h
190 06-08-2021 15:45:00 21.5 C 14.14 g/m*3 21.5 C 19.3 km/h
191 06-08-2021 15:50:00 21.9 C 13.89 g/m*3 21.9 C 19.3 km/h
192 06-08-2021 15:55:00 22.3 C 13.82 g/m*3 22.3 C 19.3 km/h
193 06-08-2021 16:00:00 22.4 C 13.7 g/m*3 22.4 C 16.1 km/h
194 06-08-2021 16:05:00 22.2 C 13.55 g/m*3 22.2 C 17.7 km/h
195 06-08-2021 16:10:00 21.9 C 13.51 g/m*3 21.9 C 16.1 km/h
196 06-08-2021 16:15:00 21.8 C 13.43 g/m*3 21.8 C 12.9 km/h
197 06-08-2021 16:20:00 21.8 C 13.43 g/m*3 21.8 C 19.3 km/h
198 06-08-2021 16:25:00 21.9 C 13.51 g/m*3 21.9 C 9.7 km/h
199 06-08-2021 16:30:00 22.4 C 13.7 g/m*3 22.4 C 14.5 km/h
200 06-08-2021 16:35:00 22.8 C 13.21 g/m*3 22.8 C 16.1 km/h
Sensor: Nr:Datum:Temp:Abs-Feuchte:Windchill:Wind:
Aussen-T/F 201 06-08-2021 16:40:00 23.1 C 13.44 g/m*3 23.1 C 11.3 km/h
202 06-08-2021 16:45:00 23.3 C 14.43 g/m*3 23.3 C 6.4 km/h
203 06-08-2021 16:50:00 23.4 C 13.67 g/m*3 23.4 C 9.7 km/h
204 06-08-2021 16:55:00 23.3 C 13.59 g/m*3 23.3 C 17.7 km/h
205 06-08-2021 17:00:00 23.3 C 13.38 g/m*3 23.3 C 14.5 km/h
206 06-08-2021 17:05:00 23.4 C 13.67 g/m*3 23.4 C 12.9 km/h
207 06-08-2021 17:10:00 23.3 C 13.38 g/m*3 23.3 C 16.1 km/h
208 06-08-2021 17:15:00 23.2 C 13.72 g/m*3 23.2 C 14.5 km/h
209 06-08-2021 17:20:00 23.3 C 13.8 g/m*3 23.3 C 16.1 km/h
210 06-08-2021 17:25:00 23.3 C 13.59 g/m*3 23.3 C 12.9 km/h
211 06-08-2021 17:30:00 23.4 C 13.67 g/m*3 23.4 C 20.9 km/h
212 06-08-2021 17:35:00 23.6 C 13.61 g/m*3 23.6 C 16.1 km/h
213 06-08-2021 17:40:00 23.5 C 13.32 g/m*3 23.5 C 19.3 km/h
214 06-08-2021 17:45:00 23.2 C 13.72 g/m*3 23.2 C 17.7 km/h
215 06-08-2021 17:50:00 22.9 C 12.88 g/m*3 22.9 C 17.7 km/h
216 06-08-2021 17:55:00 23.1 C 13.23 g/m*3 23.1 C 16.1 km/h
217 06-08-2021 18:00:00 23.2 C 13.51 g/m*3 23.2 C 11.3 km/h
218 06-08-2021 18:05:00 23.2 C 13.72 g/m*3 23.2 C 12.9 km/h
219 06-08-2021 18:10:00 23.3 C 13.59 g/m*3 23.3 C 9.7 km/h
220 06-08-2021 18:15:00 23.3 C 13.38 g/m*3 23.3 C 16.1 km/h
221 06-08-2021 18:20:00 22.9 C 12.67 g/m*3 22.9 C 24.1 km/h
222 06-08-2021 18:25:00 22.6 C 13.06 g/m*3 22.6 C 16.1 km/h
223 06-08-2021 18:30:00 22.4 C 13.11 g/m*3 22.4 C 9.7 km/h
224 06-08-2021 18:35:00 22.4 C 13.31 g/m*3 22.4 C 8.1 km/h
225 06-08-2021 18:40:00 22.6 C 13.06 g/m*3 22.6 C 8.1 km/h
Sensor: Nr:Datum:Temp:Abs-Feuchte:Windchill:Wind:
Aussen-T/F 226 06-08-2021 18:45:00 22.9 C 13.9 g/m*3 22.9 C 6.4 km/h
227 06-08-2021 18:50:00 23 C 13.15 g/m*3 23 C 24.1 km/h
228 06-08-2021 18:55:00 22.8 C 13.61 g/m*3 22.8 C 11.3 km/h
229 06-08-2021 19:00:00 22.4 C 13.11 g/m*3 22.4 C 16.1 km/h
230 06-08-2021 19:05:00 22.1 C 12.88 g/m*3 22.1 C 14.5 km/h
231 06-08-2021 19:10:00 21.9 C 12.93 g/m*3 21.9 C 11.3 km/h
232 06-08-2021 19:15:00 21.9 C 13.12 g/m*3 21.9 C 14.5 km/h
233 06-08-2021 19:20:00 21.9 C 13.12 g/m*3 21.9 C 14.5 km/h
234 06-08-2021 19:25:00 21.9 C 13.12 g/m*3 21.9 C 9.7 km/h
235 06-08-2021 19:30:00 21.8 C 13.24 g/m*3 21.8 C 11.3 km/h
236 06-08-2021 19:35:00 21.6 C 12.9 g/m*3 21.6 C 8.1 km/h
237 06-08-2021 19:40:00 21.3 C 12.86 g/m*3 21.3 C 8.1 km/h
238 06-08-2021 19:45:00 20.9 C 12.75 g/m*3 20.9 C 11.3 km/h
239 06-08-2021 19:50:00 20.7 C 12.96 g/m*3 20.7 C 8.1 km/h
240 06-08-2021 19:55:00 20.6 C 13.24 g/m*3 20.6 C 4.8 km/h
241 06-08-2021 20:00:00 20.3 C 12.84 g/m*3 20.3 C 8.1 km/h
242 06-08-2021 20:05:00 20.2 C 12.94 g/m*3 20.2 C 9.7 km/h
243 06-08-2021 20:10:00 20 C 12.62 g/m*3 20 C 6.4 km/h
244 06-08-2021 20:15:00 19.9 C 12.54 g/m*3 19.9 C 12.9 km/h
245 06-08-2021 20:20:00 19.9 C 12.71 g/m*3 19.9 C 4.8 km/h
246 06-08-2021 20:25:00 19.9 C 12.71 g/m*3 19.9 C 6.4 km/h
247 06-08-2021 20:30:00 19.9 C 12.54 g/m*3 19.9 C 9.7 km/h
248 06-08-2021 20:35:00 19.8 C 12.64 g/m*3 19.8 C 6.4 km/h
249 06-08-2021 20:40:00 19.7 C 12.57 g/m*3 19.7 C 8.1 km/h
250 06-08-2021 20:45:00 19.4 C 12.51 g/m*3 19.4 C 9.7 km/h
Sensor: Nr:Datum:Temp:Abs-Feuchte:Windchill:Wind:
Aussen-T/F 251 06-08-2021 20:50:00 19.3 C 12.61 g/m*3 19.3 C 4.8 km/h
252 06-08-2021 20:55:00 19.1 C 12.79 g/m*3 19.1 C 3.2 km/h
253 06-08-2021 21:00:00 18.9 C 12.64 g/m*3 18.9 C 1.6 km/h
254 06-08-2021 21:05:00 18.7 C 12.65 g/m*3 18.7 C 4.8 km/h
255 06-08-2021 21:10:00 18.6 C 12.73 g/m*3 18.6 C 4.8 km/h
256 06-08-2021 21:15:00 18.3 C 12.51 g/m*3 18.3 C 4.8 km/h
257 06-08-2021 21:20:00 18.1 C 12.52 g/m*3 18.1 C 4.8 km/h
258 06-08-2021 21:25:00 17.8 C 12.45 g/m*3 17.8 C 4.8 km/h
259 06-08-2021 21:30:00 17.6 C 12.3 g/m*3 17.6 C 6.4 km/h
260 06-08-2021 21:35:00 17.4 C 12.3 g/m*3 17.4 C 3.2 km/h
261 06-08-2021 21:40:00 17.2 C 12.15 g/m*3 17.2 C 4.8 km/h
262 06-08-2021 21:45:00 17.1 C 12.23 g/m*3 17.1 C 3.2 km/h
263 06-08-2021 21:50:00 16.9 C 12.23 g/m*3 16.9 C 4.8 km/h
264 06-08-2021 21:55:00 16.7 C 12.08 g/m*3 16.7 C 3.2 km/h
265 06-08-2021 22:00:00 16.6 C 12.15 g/m*3 16.6 C 4.8 km/h
266 06-08-2021 22:05:00 16.4 C 12.14 g/m*3 16.4 C 4.8 km/h
267 06-08-2021 22:10:00 16.3 C 12.07 g/m*3 16.3 C 3.2 km/h
268 06-08-2021 22:15:00 16.1 C 12.06 g/m*3 16.1 C 1.6 km/h
269 06-08-2021 22:20:00 16 C 11.99 g/m*3 16 C 0 km/h
270 06-08-2021 22:25:00 15.8 C 11.85 g/m*3 15.8 C 0 km/h
271 06-08-2021 22:30:00 15.7 C 11.91 g/m*3 15.7 C 0 km/h
272 06-08-2021 22:35:00 15.6 C 11.84 g/m*3 15.6 C 0 km/h
273 06-08-2021 22:40:00 15.5 C 11.9 g/m*3 15.5 C 0 km/h
274 06-08-2021 22:45:00 15.4 C 11.82 g/m*3 15.4 C 0 km/h
275 06-08-2021 22:50:00 15.3 C 11.75 g/m*3 15.3 C 0 km/h
Sensor: Nr:Datum:Temp:Abs-Feuchte:Windchill:Wind:
Aussen-T/F 276 06-08-2021 22:55:00 15.3 C 11.75 g/m*3 15.3 C 0 km/h
277 06-08-2021 23:00:00 15.2 C 11.81 g/m*3 15.2 C 0 km/h
278 06-08-2021 23:05:00 15.1 C 11.74 g/m*3 15.1 C 0 km/h
279 06-08-2021 23:10:00 15.1 C 11.74 g/m*3 15.1 C 0 km/h
280 06-08-2021 23:15:00 15 C 11.67 g/m*3 15 C 0 km/h
281 06-08-2021 23:20:00 14.9 C 11.73 g/m*3 14.9 C 0 km/h
282 06-08-2021 23:25:00 14.8 C 11.65 g/m*3 14.8 C 0 km/h
283 06-08-2021 23:30:00 14.8 C 11.65 g/m*3 14.8 C 0 km/h
284 06-08-2021 23:35:00 14.7 C 11.58 g/m*3 14.7 C 0 km/h
285 06-08-2021 23:40:00 14.6 C 11.51 g/m*3 14.6 C 0 km/h
286 06-08-2021 23:45:00 14.5 C 11.44 g/m*3 14.5 C 0 km/h
287 06-08-2021 23:50:00 14.4 C 11.37 g/m*3 14.4 C 0 km/h
288 06-08-2021 23:55:00 14.4 C 11.37 g/m*3 14.4 C 0 km/h

Legende:
   Min
   Max


Maximal/Minimal-Werte vom 06.08.2021 - 06.08.2021

Sensor Min Max Avg
Temp
(Aussen-T/F)
14.3 °C
06-08-2021  03:35:00
23.6 °C
06-08-2021  17:35:00
18.08 °C
Abs-Feuchte
(Aussen-T/F)
11.37 g/m*3
06-08-2021  23:50:00
14.43 g/m*3
06-08-2021  16:45:00
12.96 g/m*3
Windchill
(Aussen-T/F)
14.3 C
06-08-2021  03:35:00
23.6 C
06-08-2021  17:35:00
18.02 C

Die Daten stammen von einer Davis Vantage Pro 2 Wetter-Station und werden unter Linux mit der Software wview2wettercgi und aufbereitet. Alle Angaben erfolgen ohne Gewähr für ihre Vollständigkeit oder Richtigkeit.
Kontakt: Rainer Krienke krienke@uni-koblenz.de . Meine Webseiten an der Uni Koblenz oder privat.
Version: $Revision: 0.78 $